sensor_id;sensor_type;location;lat;lon;timestamp;pressure;altitude;pressure_sealevel;temperature;humidity
20023;BME280;10172;42.054;24.546;2022-11-20T00:02:15;97554.16;;;13.04;100.00
20023;BME280;10172;42.054;24.546;2022-11-20T00:04:40;97569.25;;;12.84;100.00
20023;BME280;10172;42.054;24.546;2022-11-20T00:07:06;97569.84;;;13.28;100.00
20023;BME280;10172;42.054;24.546;2022-11-20T00:09:31;97586.03;;;13.55;100.00
20023;BME280;10172;42.054;24.546;2022-11-20T00:11:57;97559.72;;;14.36;100.00
20023;BME280;10172;42.054;24.546;2022-11-20T00:14:22;97557.56;;;14.30;100.00
20023;BME280;10172;42.054;24.546;2022-11-20T00:16:48;97574.84;;;14.65;100.00
20023;BME280;10172;42.054;24.546;2022-11-20T00:19:13;97583.06;;;14.25;100.00
20023;BME280;10172;42.054;24.546;2022-11-20T00:21:39;97572.94;;;14.48;100.00
20023;BME280;10172;42.054;24.546;2022-11-20T00:24:04;97570.13;;;15.13;100.00
20023;BME280;10172;42.054;24.546;2022-11-20T00:26:30;97551.50;;;15.39;100.00
20023;BME280;10172;42.054;24.546;2022-11-20T00:28:58;97556.78;;;15.76;100.00
20023;BME280;10172;42.054;24.546;2022-11-20T00:31:24;97572.16;;;15.56;100.00
20023;BME280;10172;42.054;24.546;2022-11-20T00:33:50;97575.31;;;15.51;100.00
20023;BME280;10172;42.054;24.546;2022-11-20T00:36:18;97573.75;;;16.02;100.00
20023;BME280;10172;42.054;24.546;2022-11-20T00:38:44;97589.94;;;16.10;100.00
20023;BME280;10172;42.054;24.546;2022-11-20T00:41:12;97593.41;;;15.03;100.00
20023;BME280;10172;42.054;24.546;2022-11-20T00:43:38;97577.56;;;15.46;100.00
20023;BME280;10172;42.054;24.546;2022-11-20T00:46:06;97575.09;;;15.35;100.00
20023;BME280;10172;42.054;24.546;2022-11-20T00:48:32;97570.88;;;15.78;100.00
20023;BME280;10172;42.054;24.546;2022-11-20T00:50:58;97593.22;;;14.12;100.00
20023;BME280;10172;42.054;24.546;2022-11-20T00:53:24;97581.88;;;14.66;100.00
20023;BME280;10172;42.054;24.546;2022-11-20T00:55:56;97600.44;;;14.77;100.00
20023;BME280;10172;42.054;24.546;2022-11-20T00:58:23;97608.94;;;14.63;100.00
20023;BME280;10172;42.054;24.546;2022-11-20T01:00:49;97596.00;;;14.95;100.00
20023;BME280;10172;42.054;24.546;2022-11-20T01:03:15;97584.50;;;15.67;100.00
20023;BME280;10172;42.054;24.546;2022-11-20T01:05:41;97595.50;;;15.64;100.00
20023;BME280;10172;42.054;24.546;2022-11-20T01:08:07;97578.91;;;16.13;100.00
20023;BME280;10172;42.054;24.546;2022-11-20T01:10:32;97585.19;;;15.41;100.00
20023;BME280;10172;42.054;24.546;2022-11-20T01:12:57;97581.72;;;15.59;100.00
20023;BME280;10172;42.054;24.546;2022-11-20T01:15:41;97573.63;;;15.41;100.00
20023;BME280;10172;42.054;24.546;2022-11-20T01:18:07;97563.81;;;15.77;100.00
20023;BME280;10172;42.054;24.546;2022-11-20T01:20:36;97566.72;;;15.38;100.00
20023;BME280;10172;42.054;24.546;2022-11-20T01:23:03;97570.63;;;15.26;100.00
20023;BME280;10172;42.054;24.546;2022-11-20T01:25:28;97554.78;;;15.33;100.00
20023;BME280;10172;42.054;24.546;2022-11-20T01:27:54;97547.03;;;15.75;100.00
20023;BME280;10172;42.054;24.546;2022-11-20T01:30:19;97543.91;;;15.62;100.00
20023;BME280;10172;42.054;24.546;2022-11-20T01:32:45;97553.88;;;15.42;100.00
20023;BME280;10172;42.054;24.546;2022-11-20T01:35:10;97524.91;;;15.73;100.00
20023;BME280;10172;42.054;24.546;2022-11-20T01:37:36;97550.09;;;15.80;100.00
20023;BME280;10172;42.054;24.546;2022-11-20T01:40:01;97526.25;;;15.77;100.00
20023;BME280;10172;42.054;24.546;2022-11-20T01:42:27;97532.91;;;15.90;100.00
20023;BME280;10172;42.054;24.546;2022-11-20T01:49:15;97534.97;;;16.40;100.00
20023;BME280;10172;42.054;24.546;2022-11-20T01:54:10;97533.41;;;16.81;100.00
20023;BME280;10172;42.054;24.546;2022-11-20T01:56:40;97537.69;;;16.99;100.00
20023;BME280;10172;42.054;24.546;2022-11-20T01:59:08;97539.75;;;17.13;100.00
20023;BME280;10172;42.054;24.546;2022-11-20T02:01:36;97514.09;;;16.51;100.00
20023;BME280;10172;42.054;24.546;2022-11-20T02:04:02;97514.78;;;16.87;100.00
20023;BME280;10172;42.054;24.546;2022-11-20T02:06:50;97504.91;;;16.96;100.00
20023;BME280;10172;42.054;24.546;2022-11-20T02:09:18;97501.00;;;17.24;100.00
20023;BME280;10172;42.054;24.546;2022-11-20T02:11:44;97523.81;;;17.94;100.00
20023;BME280;10172;42.054;24.546;2022-11-20T02:14:10;97521.13;;;18.02;100.00
20023;BME280;10172;42.054;24.546;2022-11-20T02:16:54;97525.66;;;18.10;100.00
20023;BME280;10172;42.054;24.546;2022-11-20T02:19:27;97502.06;;;18.52;100.00
20023;BME280;10172;42.054;24.546;2022-11-20T02:22:04;97524.63;;;18.98;100.00
20023;BME280;10172;42.054;24.546;2022-11-20T02:24:31;97502.88;;;18.61;100.00
20023;BME280;10172;42.054;24.546;2022-11-20T02:27:00;97511.47;;;18.64;100.00
20023;BME280;10172;42.054;24.546;2022-11-20T02:29:52;97514.44;;;18.85;100.00
20023;BME280;10172;42.054;24.546;2022-11-20T02:34:44;97499.19;;;19.00;100.00
20023;BME280;10172;42.054;24.546;2022-11-20T02:37:10;97521.38;;;19.19;91.69
20023;BME280;10172;42.054;24.546;2022-11-20T02:39:35;97519.09;;;19.30;92.69
20023;BME280;10172;42.054;24.546;2022-11-20T02:42:01;97508.59;;;19.13;91.88
20023;BME280;10172;42.054;24.546;2022-11-20T02:44:27;97494.00;;;18.99;92.47
20023;BME280;10172;42.054;24.546;2022-11-20T02:46:52;97506.13;;;19.03;92.63
20023;BME280;10172;42.054;24.546;2022-11-20T02:49:18;97495.78;;;19.15;92.42
20023;BME280;10172;42.054;24.546;2022-11-20T02:51:43;97481.88;;;19.03;90.56
20023;BME280;10172;42.054;24.546;2022-11-20T02:54:09;97485.09;;;19.29;89.10
20023;BME280;10172;42.054;24.546;2022-11-20T02:56:34;97473.53;;;19.13;90.09
20023;BME280;10172;42.054;24.546;2022-11-20T02:58:59;97475.66;;;18.94;90.47
20023;BME280;10172;42.054;24.546;2022-11-20T03:01:25;97494.00;;;19.38;89.59
20023;BME280;10172;42.054;24.546;2022-11-20T03:03:50;97476.81;;;19.31;89.98
20023;BME280;10172;42.054;24.546;2022-11-20T03:06:17;97477.66;;;19.31;88.36
20023;BME280;10172;42.054;24.546;2022-11-20T03:08:42;97479.75;;;19.21;89.43
20023;BME280;10172;42.054;24.546;2022-11-20T03:11:09;97454.69;;;19.66;85.46
20023;BME280;10172;42.054;24.546;2022-11-20T03:13:35;97459.88;;;19.90;83.32
20023;BME280;10172;42.054;24.546;2022-11-20T03:16:27;97443.75;;;19.82;83.97
20023;BME280;10172;42.054;24.546;2022-11-20T03:18:52;97427.78;;;19.95;82.45
20023;BME280;10172;42.054;24.546;2022-11-20T03:21:18;97418.03;;;19.94;81.95
20023;BME280;10172;42.054;24.546;2022-11-20T03:23:44;97415.69;;;19.91;82.07
20023;BME280;10172;42.054;24.546;2022-11-20T03:26:18;97427.75;;;19.81;82.37
20023;BME280;10172;42.054;24.546;2022-11-20T03:28:49;97424.09;;;20.11;80.28
20023;BME280;10172;42.054;24.546;2022-11-20T03:31:16;97429.25;;;19.83;82.39
20023;BME280;10172;42.054;24.546;2022-11-20T03:33:42;97422.28;;;19.89;82.21
20023;BME280;10172;42.054;24.546;2022-11-20T03:36:10;97419.22;;;19.92;82.06
20023;BME280;10172;42.054;24.546;2022-11-20T03:38:37;97420.72;;;19.94;80.34
20023;BME280;10172;42.054;24.546;2022-11-20T03:41:06;97427.94;;;20.16;79.17
20023;BME280;10172;42.054;24.546;2022-11-20T03:43:32;97432.75;;;20.06;79.20
20023;BME280;10172;42.054;24.546;2022-11-20T03:45:58;97424.84;;;20.19;78.43
20023;BME280;10172;42.054;24.546;2022-11-20T03:48:24;97440.34;;;20.25;77.57
20023;BME280;10172;42.054;24.546;2022-11-20T03:50:50;97419.38;;;20.27;77.68
20023;BME280;10172;42.054;24.546;2022-11-20T03:53:16;97423.88;;;20.35;77.65
20023;BME280;10172;42.054;24.546;2022-11-20T03:55:41;97437.25;;;20.14;78.43
20023;BME280;10172;42.054;24.546;2022-11-20T03:58:08;97416.03;;;20.25;77.59
20023;BME280;10172;42.054;24.546;2022-11-20T04:00:33;97426.84;;;20.25;79.02
20023;BME280;10172;42.054;24.546;2022-11-20T04:03:00;97423.47;;;20.23;77.25
20023;BME280;10172;42.054;24.546;2022-11-20T04:05:25;97400.50;;;20.42;75.87
20023;BME280;10172;42.054;24.546;2022-11-20T04:07:51;97434.31;;;20.53;75.41
20023;BME280;10172;42.054;24.546;2022-11-20T04:10:16;97423.13;;;20.70;74.14
20023;BME280;10172;42.054;24.546;2022-11-20T04:12:42;97425.47;;;20.59;75.60
20023;BME280;10172;42.054;24.546;2022-11-20T04:15:08;97400.88;;;20.54;75.22
20023;BME280;10172;42.054;24.546;2022-11-20T04:17:33;97381.59;;;20.57;74.93
20023;BME280;10172;42.054;24.546;2022-11-20T04:19:59;97395.09;;;20.57;75.81
20023;BME280;10172;42.054;24.546;2022-11-20T04:22:24;97398.00;;;20.41;76.25
20023;BME280;10172;42.054;24.546;2022-11-20T04:24:50;97408.78;;;20.55;74.95
20023;BME280;10172;42.054;24.546;2022-11-20T04:27:15;97402.53;;;20.55;75.45
20023;BME280;10172;42.054;24.546;2022-11-20T04:29:40;97419.16;;;20.52;75.38
20023;BME280;10172;42.054;24.546;2022-11-20T04:32:06;97420.53;;;20.48;75.99
20023;BME280;10172;42.054;24.546;2022-11-20T04:34:31;97410.09;;;20.45;75.88
20023;BME280;10172;42.054;24.546;2022-11-20T04:36:57;97418.94;;;20.68;73.93
20023;BME280;10172;42.054;24.546;2022-11-20T04:39:22;97446.34;;;20.65;74.53
20023;BME280;10172;42.054;24.546;2022-11-20T04:41:48;97421.84;;;20.52;75.33
20023;BME280;10172;42.054;24.546;2022-11-20T04:44:13;97427.44;;;20.65;75.54
20023;BME280;10172;42.054;24.546;2022-11-20T04:46:41;97470.06;;;20.55;74.71
20023;BME280;10172;42.054;24.546;2022-11-20T04:49:07;97442.59;;;20.66;73.93
20023;BME280;10172;42.054;24.546;2022-11-20T04:51:33;97474.09;;;20.59;74.00
20023;BME280;10172;42.054;24.546;2022-11-20T04:53:59;97458.44;;;20.69;75.23
20023;BME280;10172;42.054;24.546;2022-11-20T04:56:24;97465.53;;;20.70;75.85
20023;BME280;10172;42.054;24.546;2022-11-20T04:58:50;97468.06;;;20.57;76.84
20023;BME280;10172;42.054;24.546;2022-11-20T05:01:21;97464.59;;;20.11;82.55
20023;BME280;10172;42.054;24.546;2022-11-20T05:03:47;97477.72;;;19.54;83.38
20023;BME280;10172;42.054;24.546;2022-11-20T05:06:14;97459.38;;;20.09;77.92
20023;BME280;10172;42.054;24.546;2022-11-20T05:08:40;97459.22;;;19.88;80.09
20023;BME280;10172;42.054;24.546;2022-11-20T05:11:08;97465.69;;;19.79;82.49
20023;BME280;10172;42.054;24.546;2022-11-20T05:13:34;97460.22;;;19.73;81.51
20023;BME280;10172;42.054;24.546;2022-11-20T05:16:14;97460.91;;;19.89;81.46
20023;BME280;10172;42.054;24.546;2022-11-20T05:18:40;97450.91;;;20.12;78.41
20023;BME280;10172;42.054;24.546;2022-11-20T05:21:07;97466.53;;;20.02;77.50
20023;BME280;10172;42.054;24.546;2022-11-20T05:23:33;97478.91;;;20.11;77.19
20023;BME280;10172;42.054;24.546;2022-11-20T05:26:00;97478.81;;;20.27;75.85
20023;BME280;10172;42.054;24.546;2022-11-20T05:28:27;97481.50;;;20.27;75.64
20023;BME280;10172;42.054;24.546;2022-11-20T05:30:53;97464.56;;;20.34;76.16
20023;BME280;10172;42.054;24.546;2022-11-20T05:33:19;97472.13;;;20.38;75.71
20023;BME280;10172;42.054;24.546;2022-11-20T05:35:44;97463.84;;;20.40;75.30
20023;BME280;10172;42.054;24.546;2022-11-20T05:38:10;97484.50;;;20.33;75.71
20023;BME280;10172;42.054;24.546;2022-11-20T05:40:36;97472.22;;;20.45;75.25
20023;BME280;10172;42.054;24.546;2022-11-20T05:43:01;97459.16;;;20.34;75.45
20023;BME280;10172;42.054;24.546;2022-11-20T05:45:27;97468.59;;;20.52;74.05
20023;BME280;10172;42.054;24.546;2022-11-20T05:47:52;97453.69;;;20.42;74.29
20023;BME280;10172;42.054;24.546;2022-11-20T05:50:18;97436.63;;;20.26;75.34
20023;BME280;10172;42.054;24.546;2022-11-20T05:52:44;97438.16;;;20.44;74.28
20023;BME280;10172;42.054;24.546;2022-11-20T05:55:09;97451.91;;;20.34;75.86
20023;BME280;10172;42.054;24.546;2022-11-20T05:57:35;97461.97;;;20.55;74.33
20023;BME280;10172;42.054;24.546;2022-11-20T06:00:01;97455.84;;;20.61;73.48
20023;BME280;10172;42.054;24.546;2022-11-20T06:02:26;97470.47;;;20.52;74.89
20023;BME280;10172;42.054;24.546;2022-11-20T06:04:52;97465.53;;;20.41;75.22
20023;BME280;10172;42.054;24.546;2022-11-20T06:07:17;97475.84;;;20.37;75.45
20023;BME280;10172;42.054;24.546;2022-11-20T06:09:43;97489.47;;;20.44;75.15
20023;BME280;10172;42.054;24.546;2022-11-20T06:12:08;97477.06;;;20.35;75.96
20023;BME280;10172;42.054;24.546;2022-11-20T06:14:33;97475.22;;;20.35;75.83
20023;BME280;10172;42.054;24.546;2022-11-20T06:16:59;97482.19;;;20.44;75.31
20023;BME280;10172;42.054;24.546;2022-11-20T06:19:24;97469.31;;;20.32;76.89
20023;BME280;10172;42.054;24.546;2022-11-20T06:21:50;97479.13;;;20.33;76.58
20023;BME280;10172;42.054;24.546;2022-11-20T06:24:16;97476.13;;;20.42;76.21
20023;BME280;10172;42.054;24.546;2022-11-20T06:26:41;97461.03;;;20.48;75.07
20023;BME280;10172;42.054;24.546;2022-11-20T06:29:07;97475.19;;;20.50;75.39
20023;BME280;10172;42.054;24.546;2022-11-20T06:31:32;97475.97;;;20.44;75.70
20023;BME280;10172;42.054;24.546;2022-11-20T06:34:00;97499.34;;;20.51;74.87
20023;BME280;10172;42.054;24.546;2022-11-20T06:36:26;97509.75;;;20.40;76.18
20023;BME280;10172;42.054;24.546;2022-11-20T06:38:52;97512.19;;;20.49;75.29
20023;BME280;10172;42.054;24.546;2022-11-20T06:41:21;97525.72;;;20.64;74.15
20023;BME280;10172;42.054;24.546;2022-11-20T06:43:48;97522.91;;;20.57;74.96
20023;BME280;10172;42.054;24.546;2022-11-20T06:46:14;97546.97;;;20.67;73.89
20023;BME280;10172;42.054;24.546;2022-11-20T06:48:43;97548.47;;;20.69;74.83
20023;BME280;10172;42.054;24.546;2022-11-20T06:51:08;97520.69;;;20.90;73.44
20023;BME280;10172;42.054;24.546;2022-11-20T06:53:35;97526.31;;;21.03;74.04
20023;BME280;10172;42.054;24.546;2022-11-20T06:56:00;97538.88;;;20.81;73.24
20023;BME280;10172;42.054;24.546;2022-11-20T06:58:31;97540.00;;;20.72;75.79
20023;BME280;10172;42.054;24.546;2022-11-20T07:01:01;97549.28;;;20.84;74.82
20023;BME280;10172;42.054;24.546;2022-11-20T07:03:26;97538.31;;;21.01;74.26
20023;BME280;10172;42.054;24.546;2022-11-20T07:05:55;97543.44;;;20.81;74.00
20023;BME280;10172;42.054;24.546;2022-11-20T07:08:21;97549.03;;;20.94;74.07
20023;BME280;10172;42.054;24.546;2022-11-20T07:10:46;97555.50;;;21.08;73.08
20023;BME280;10172;42.054;24.546;2022-11-20T07:13:12;97544.22;;;21.19;73.38
20023;BME280;10172;42.054;24.546;2022-11-20T07:15:37;97557.91;;;21.17;72.76
20023;BME280;10172;42.054;24.546;2022-11-20T07:18:03;97560.72;;;21.24;72.88
20023;BME280;10172;42.054;24.546;2022-11-20T07:20:28;97554.00;;;21.34;73.83
20023;BME280;10172;42.054;24.546;2022-11-20T07:22:55;97557.44;;;21.28;72.68
20023;BME280;10172;42.054;24.546;2022-11-20T07:25:22;97566.03;;;21.17;72.81
20023;BME280;10172;42.054;24.546;2022-11-20T07:27:47;97554.25;;;21.39;72.60
20023;BME280;10172;42.054;24.546;2022-11-20T07:30:14;97571.81;;;21.43;72.40
20023;BME280;10172;42.054;24.546;2022-11-20T07:32:39;97571.81;;;21.43;73.12
20023;BME280;10172;42.054;24.546;2022-11-20T07:35:05;97573.19;;;21.54;72.42
20023;BME280;10172;42.054;24.546;2022-11-20T07:37:34;97572.00;;;21.27;73.12
20023;BME280;10172;42.054;24.546;2022-11-20T07:39:59;97560.19;;;21.50;72.91
20023;BME280;10172;42.054;24.546;2022-11-20T07:42:25;97565.44;;;21.51;72.09
20023;BME280;10172;42.054;24.546;2022-11-20T07:44:53;97575.69;;;21.56;71.94
20023;BME280;10172;42.054;24.546;2022-11-20T07:47:18;97569.75;;;21.81;72.02
20023;BME280;10172;42.054;24.546;2022-11-20T07:49:44;97560.66;;;22.25;70.73
20023;BME280;10172;42.054;24.546;2022-11-20T07:52:12;97559.69;;;22.11;70.57
20023;BME280;10172;42.054;24.546;2022-11-20T07:54:37;97553.94;;;21.85;71.15
20023;BME280;10172;42.054;24.546;2022-11-20T07:57:03;97554.44;;;21.74;71.43
20023;BME280;10172;42.054;24.546;2022-11-20T07:59:28;97545.44;;;21.52;72.47
20023;BME280;10172;42.054;24.546;2022-11-20T08:01:54;97541.63;;;21.61;72.26
20023;BME280;10172;42.054;24.546;2022-11-20T08:04:20;97549.38;;;22.21;70.88
20023;BME280;10172;42.054;24.546;2022-11-20T08:06:45;97549.38;;;22.98;67.26
20023;BME280;10172;42.054;24.546;2022-11-20T08:09:10;97547.13;;;22.52;69.79
20023;BME280;10172;42.054;24.546;2022-11-20T08:11:36;97557.09;;;23.01;68.50
20023;BME280;10172;42.054;24.546;2022-11-20T08:14:26;97540.06;;;23.13;68.09
20023;BME280;10172;42.054;24.546;2022-11-20T08:16:53;97540.41;;;22.70;68.50
20023;BME280;10172;42.054;24.546;2022-11-20T08:19:18;97545.34;;;23.62;66.80
20023;BME280;10172;42.054;24.546;2022-11-20T08:21:44;97539.78;;;23.97;64.35
20023;BME280;10172;42.054;24.546;2022-11-20T08:24:11;97523.34;;;24.44;64.73
20023;BME280;10172;42.054;24.546;2022-11-20T08:26:37;97527.09;;;24.95;63.31
20023;BME280;10172;42.054;24.546;2022-11-20T08:29:03;97530.28;;;24.92;62.14
20023;BME280;10172;42.054;24.546;2022-11-20T08:31:29;97522.09;;;24.92;62.21
20023;BME280;10172;42.054;24.546;2022-11-20T08:33:55;97519.38;;;24.27;62.41
20023;BME280;10172;42.054;24.546;2022-11-20T08:36:21;97514.28;;;25.09;60.39
20023;BME280;10172;42.054;24.546;2022-11-20T08:38:52;97524.81;;;24.92;61.67
20023;BME280;10172;42.054;24.546;2022-11-20T08:41:18;97518.53;;;24.66;59.92
20023;BME280;10172;42.054;24.546;2022-11-20T08:44:04;97517.50;;;24.21;61.02
20023;BME280;10172;42.054;24.546;2022-11-20T08:46:35;97518.81;;;23.71;62.12
20023;BME280;10172;42.054;24.546;2022-11-20T08:49:06;97505.56;;;24.09;61.40
20023;BME280;10172;42.054;24.546;2022-11-20T08:51:32;97515.41;;;24.88;59.14
20023;BME280;10172;42.054;24.546;2022-11-20T08:53:58;97514.41;;;25.47;58.27
20023;BME280;10172;42.054;24.546;2022-11-20T08:56:24;97511.16;;;25.19;55.91
20023;BME280;10172;42.054;24.546;2022-11-20T08:58:50;97540.53;;;24.51;57.94
20023;BME280;10172;42.054;24.546;2022-11-20T09:01:18;97506.34;;;23.96;59.72
20023;BME280;10172;42.054;24.546;2022-11-20T09:03:44;97488.59;;;24.07;61.64
20023;BME280;10172;42.054;24.546;2022-11-20T09:06:09;97505.59;;;24.35;60.88
20023;BME280;10172;42.054;24.546;2022-11-20T09:08:35;97507.47;;;24.54;61.03
20023;BME280;10172;42.054;24.546;2022-11-20T09:11:02;97497.56;;;25.63;58.49
20023;BME280;10172;42.054;24.546;2022-11-20T09:13:28;97493.81;;;25.64;57.28
20023;BME280;10172;42.054;24.546;2022-11-20T09:16:07;97492.75;;;25.65;56.39
20023;BME280;10172;42.054;24.546;2022-11-20T09:18:34;97509.34;;;25.57;56.55
20023;BME280;10172;42.054;24.546;2022-11-20T09:21:04;97498.63;;;26.00;57.18
20023;BME280;10172;42.054;24.546;2022-11-20T09:23:32;97480.91;;;26.22;55.65
20023;BME280;10172;42.054;24.546;2022-11-20T09:26:01;97468.16;;;26.41;54.84
20023;BME280;10172;42.054;24.546;2022-11-20T09:28:27;97477.78;;;24.46;58.50
20023;BME280;10172;42.054;24.546;2022-11-20T09:30:52;97478.31;;;25.65;58.16
20023;BME280;10172;42.054;24.546;2022-11-20T09:33:18;97475.53;;;25.27;56.88
20023;BME280;10172;42.054;24.546;2022-11-20T09:35:43;97465.63;;;25.83;55.30
20023;BME280;10172;42.054;24.546;2022-11-20T09:38:10;97471.53;;;25.29;56.14
20023;BME280;10172;42.054;24.546;2022-11-20T09:40:52;97442.78;;;26.16;55.08
20023;BME280;10172;42.054;24.546;2022-11-20T09:46:43;97457.28;;;26.34;53.41
20023;BME280;10172;42.054;24.546;2022-11-20T09:54:22;97448.41;;;27.06;51.30
20023;BME280;10172;42.054;24.546;2022-11-20T09:56:58;97456.06;;;25.99;53.07
20023;BME280;10172;42.054;24.546;2022-11-20T10:01:50;97441.34;;;24.73;56.15
20023;BME280;10172;42.054;24.546;2022-11-20T10:04:17;97451.44;;;24.40;57.77
20023;BME280;10172;42.054;24.546;2022-11-20T10:09:37;97443.66;;;24.63;57.43
20023;BME280;10172;42.054;24.546;2022-11-20T10:15:11;97432.53;;;24.91;57.01
20023;BME280;10172;42.054;24.546;2022-11-20T10:20:40;97436.50;;;25.46;54.52
20023;BME280;10172;42.054;24.546;2022-11-20T10:29:14;97434.03;;;25.38;55.15
20023;BME280;10172;42.054;24.546;2022-11-20T10:31:44;97426.84;;;25.06;55.62
20023;BME280;10172;42.054;24.546;2022-11-20T10:37:12;97404.06;;;26.32;52.12
20023;BME280;10172;42.054;24.546;2022-11-20T10:39:57;97398.91;;;25.92;52.84
20023;BME280;10172;42.054;24.546;2022-11-20T10:43:01;97414.53;;;26.71;50.44
20023;BME280;10172;42.054;24.546;2022-11-20T10:45:38;97410.78;;;24.91;53.70
20023;BME280;10172;42.054;24.546;2022-11-20T10:48:25;97403.00;;;25.39;52.69
20023;BME280;10172;42.054;24.546;2022-11-20T10:53:42;97407.19;;;26.04;50.79
20023;BME280;10172;42.054;24.546;2022-11-20T10:56:20;97402.31;;;26.12;49.68
20023;BME280;10172;42.054;24.546;2022-11-20T11:01:47;97400.03;;;24.19;55.76
20023;BME280;10172;42.054;24.546;2022-11-20T11:04:33;97397.31;;;24.06;56.36
20023;BME280;10172;42.054;24.546;2022-11-20T11:07:09;97406.22;;;24.59;55.92
20023;BME280;10172;42.054;24.546;2022-11-20T11:09:40;97384.16;;;23.90;57.18
20023;BME280;10172;42.054;24.546;2022-11-20T11:12:09;97384.91;;;23.44;57.48
20023;BME280;10172;42.054;24.546;2022-11-20T11:14:46;97375.53;;;23.40;58.20
20023;BME280;10172;42.054;24.546;2022-11-20T11:22:50;97376.59;;;23.59;58.07
20023;BME280;10172;42.054;24.546;2022-11-20T11:27:50;97367.00;;;23.69;57.35
20023;BME280;10172;42.054;24.546;2022-11-20T11:30:18;97354.03;;;24.24;57.97
20023;BME280;10172;42.054;24.546;2022-11-20T11:32:44;97349.00;;;24.01;57.66
20023;BME280;10172;42.054;24.546;2022-11-20T11:35:27;97348.41;;;24.06;56.61
20023;BME280;10172;42.054;24.546;2022-11-20T11:38:02;97359.91;;;23.75;57.42
20023;BME280;10172;42.054;24.546;2022-11-20T11:40:31;97350.69;;;23.96;57.56
20023;BME280;10172;42.054;24.546;2022-11-20T11:43:02;97360.50;;;23.90;57.78
20023;BME280;10172;42.054;24.546;2022-11-20T11:45:29;97356.13;;;24.09;56.61
20023;BME280;10172;42.054;24.546;2022-11-20T11:48:00;97359.88;;;24.08;57.04
20023;BME280;10172;42.054;24.546;2022-11-20T11:50:28;97354.75;;;24.70;56.13
20023;BME280;10172;42.054;24.546;2022-11-20T11:53:13;97354.47;;;24.08;55.63
20023;BME280;10172;42.054;24.546;2022-11-20T11:55:46;97348.72;;;24.55;54.68
20023;BME280;10172;42.054;24.546;2022-11-20T11:58:30;97339.41;;;23.99;55.50
20023;BME280;10172;42.054;24.546;2022-11-20T12:03:52;97349.81;;;25.43;52.52
20023;BME280;10172;42.054;24.546;2022-11-20T12:06:20;97344.28;;;25.25;52.56
20023;BME280;10172;42.054;24.546;2022-11-20T12:11:42;97322.59;;;25.36;52.59
20023;BME280;10172;42.054;24.546;2022-11-20T12:14:31;97331.03;;;24.26;54.46
20023;BME280;10172;42.054;24.546;2022-11-20T12:17:00;97336.03;;;24.36;55.16
20023;BME280;10172;42.054;24.546;2022-11-20T12:19:31;97328.78;;;24.74;54.23
20023;BME280;10172;42.054;24.546;2022-11-20T12:25:07;97342.59;;;25.24;53.38
20023;BME280;10172;42.054;24.546;2022-11-20T12:27:44;97337.59;;;24.70;53.54
20023;BME280;10172;42.054;24.546;2022-11-20T12:30:15;97322.81;;;25.04;53.33
20023;BME280;10172;42.054;24.546;2022-11-20T12:40:56;97325.47;;;24.66;54.38
20023;BME280;10172;42.054;24.546;2022-11-20T12:43:27;97321.22;;;24.89;53.92
20023;BME280;10172;42.054;24.546;2022-11-20T12:46:37;97316.81;;;24.37;54.51
20023;BME280;10172;42.054;24.546;2022-11-20T12:51:59;97338.38;;;23.60;54.89
20023;BME280;10172;42.054;24.546;2022-11-20T13:00:12;97354.69;;;22.93;58.89
20023;BME280;10172;42.054;24.546;2022-11-20T13:08:38;97365.31;;;24.08;54.37
20023;BME280;10172;42.054;24.546;2022-11-20T13:18:38;97406.66;;;22.28;62.37
20023;BME280;10172;42.054;24.546;2022-11-20T13:21:37;97390.47;;;22.07;62.79
20023;BME280;10172;42.054;24.546;2022-11-20T13:26:44;97402.34;;;21.85;64.15
20023;BME280;10172;42.054;24.546;2022-11-20T13:29:15;97410.13;;;21.88;64.86
20023;BME280;10172;42.054;24.546;2022-11-20T13:31:44;97410.03;;;22.02;64.66
20023;BME280;10172;42.054;24.546;2022-11-20T13:34:13;97411.00;;;21.74;64.98
20023;BME280;10172;42.054;24.546;2022-11-20T13:36:52;97425.19;;;21.76;65.67
20023;BME280;10172;42.054;24.546;2022-11-20T13:39:35;97435.78;;;21.92;65.28
20023;BME280;10172;42.054;24.546;2022-11-20T13:44:39;97461.66;;;21.59;65.28
20023;BME280;10172;42.054;24.546;2022-11-20T13:47:24;97485.28;;;21.50;67.70
20023;BME280;10172;42.054;24.546;2022-11-20T13:49:51;97478.19;;;19.80;82.41
20023;BME280;10172;42.054;24.546;2022-11-20T14:00:57;97456.50;;;18.18;100.00
20023;BME280;10172;42.054;24.546;2022-11-20T14:03:29;97458.91;;;17.81;100.00
20023;BME280;10172;42.054;24.546;2022-11-20T14:05:59;97443.03;;;18.26;100.00
20023;BME280;10172;42.054;24.546;2022-11-20T14:08:41;97443.09;;;19.04;100.00
20023;BME280;10172;42.054;24.546;2022-11-20T14:11:18;97430.53;;;18.41;100.00
20023;BME280;10172;42.054;24.546;2022-11-20T14:14:15;97432.34;;;18.65;100.00
20023;BME280;10172;42.054;24.546;2022-11-20T14:16:41;97423.34;;;19.11;100.00
20023;BME280;10172;42.054;24.546;2022-11-20T14:21:47;97426.41;;;19.39;100.00
20023;BME280;10172;42.054;24.546;2022-11-20T14:24:14;97421.84;;;18.78;100.00
20023;BME280;10172;42.054;24.546;2022-11-20T14:26:44;97419.41;;;17.89;100.00
20023;BME280;10172;42.054;24.546;2022-11-20T14:31:45;97430.19;;;19.22;100.00
20023;BME280;10172;42.054;24.546;2022-11-20T14:34:20;97428.34;;;19.68;100.00
20023;BME280;10172;42.054;24.546;2022-11-20T14:36:47;97425.97;;;20.10;100.00
20023;BME280;10172;42.054;24.546;2022-11-20T14:39:25;97410.28;;;20.28;97.78
20023;BME280;10172;42.054;24.546;2022-11-20T14:41:53;97398.00;;;20.03;97.30
20023;BME280;10172;42.054;24.546;2022-11-20T14:44:23;97399.41;;;19.99;96.20
20023;BME280;10172;42.054;24.546;2022-11-20T14:46:51;97388.88;;;19.30;100.00